sensor_id;sensor_type;location;lat;lon;timestamp;temperature;humidity
7000;DHT22;3540;53.242;10.408;2022-10-22T00:02:16;13.70;99.90
7000;DHT22;3540;53.242;10.408;2022-10-22T00:04:46;13.70;99.90
7000;DHT22;3540;53.242;10.408;2022-10-22T00:07:12;13.70;99.90
7000;DHT22;3540;53.242;10.408;2022-10-22T00:09:38;13.70;99.90
7000;DHT22;3540;53.242;10.408;2022-10-22T00:12:04;13.70;99.90
7000;DHT22;3540;53.242;10.408;2022-10-22T00:14:30;13.70;99.90
7000;DHT22;3540;53.242;10.408;2022-10-22T00:16:55;13.70;99.90
7000;DHT22;3540;53.242;10.408;2022-10-22T00:19:21;13.70;99.90
7000;DHT22;3540;53.242;10.408;2022-10-22T00:21:46;13.70;99.90
7000;DHT22;3540;53.242;10.408;2022-10-22T00:24:12;13.70;99.90
7000;DHT22;3540;53.242;10.408;2022-10-22T00:26:38;13.70;99.90
7000;DHT22;3540;53.242;10.408;2022-10-22T00:29:05;13.70;99.90
7000;DHT22;3540;53.242;10.408;2022-10-22T00:31:30;13.70;99.90
7000;DHT22;3540;53.242;10.408;2022-10-22T00:33:56;13.70;99.90
7000;DHT22;3540;53.242;10.408;2022-10-22T00:36:22;13.70;99.90
7000;DHT22;3540;53.242;10.408;2022-10-22T00:38:47;13.70;99.90
7000;DHT22;3540;53.242;10.408;2022-10-22T00:41:13;13.70;99.90
7000;DHT22;3540;53.242;10.408;2022-10-22T00:44:00;13.80;99.90
7000;DHT22;3540;53.242;10.408;2022-10-22T00:46:27;13.80;99.90
7000;DHT22;3540;53.242;10.408;2022-10-22T00:48:54;13.80;99.90
7000;DHT22;3540;53.242;10.408;2022-10-22T00:51:24;13.80;99.90
7000;DHT22;3540;53.242;10.408;2022-10-22T00:53:53;13.80;99.90
7000;DHT22;3540;53.242;10.408;2022-10-22T00:56:21;13.80;99.90
7000;DHT22;3540;53.242;10.408;2022-10-22T00:58:51;13.80;99.90
7000;DHT22;3540;53.242;10.408;2022-10-22T01:01:21;13.80;99.90
7000;DHT22;3540;53.242;10.408;2022-10-22T01:03:48;13.80;99.90
7000;DHT22;3540;53.242;10.408;2022-10-22T01:06:22;13.80;99.90
7000;DHT22;3540;53.242;10.408;2022-10-22T01:08:59;13.80;99.90
7000;DHT22;3540;53.242;10.408;2022-10-22T01:11:51;13.80;99.90
7000;DHT22;3540;53.242;10.408;2022-10-22T01:25:57;13.90;99.90
7000;DHT22;3540;53.242;10.408;2022-10-22T01:31:35;13.90;99.90
7000;DHT22;3540;53.242;10.408;2022-10-22T01:34:15;13.90;99.90
7000;DHT22;3540;53.242;10.408;2022-10-22T01:36:57;13.90;99.90
7000;DHT22;3540;53.242;10.408;2022-10-22T01:42:19;13.80;99.90
7000;DHT22;3540;53.242;10.408;2022-10-22T01:44:45;13.80;99.90
7000;DHT22;3540;53.242;10.408;2022-10-22T01:50:39;13.70;99.90
7000;DHT22;3540;53.242;10.408;2022-10-22T01:53:52;13.70;99.90
7000;DHT22;3540;53.242;10.408;2022-10-22T02:07:56;13.60;99.90
7000;DHT22;3540;53.242;10.408;2022-10-22T02:10:39;13.50;99.90
7000;DHT22;3540;53.242;10.408;2022-10-22T02:13:20;13.50;99.90
7000;DHT22;3540;53.242;10.408;2022-10-22T02:15:53;13.40;99.90
7000;DHT22;3540;53.242;10.408;2022-10-22T02:18:28;13.40;99.90
7000;DHT22;3540;53.242;10.408;2022-10-22T02:21:02;13.40;99.90
7000;DHT22;3540;53.242;10.408;2022-10-22T02:23:28;13.40;99.90
7000;DHT22;3540;53.242;10.408;2022-10-22T02:26:06;13.30;99.90
7000;DHT22;3540;53.242;10.408;2022-10-22T02:31:30;13.20;99.90
7000;DHT22;3540;53.242;10.408;2022-10-22T02:34:06;13.20;99.90
7000;DHT22;3540;53.242;10.408;2022-10-22T02:36:35;13.10;99.90
7000;DHT22;3540;53.242;10.408;2022-10-22T02:39:05;13.10;99.90
7000;DHT22;3540;53.242;10.408;2022-10-22T02:41:34;13.00;99.90
7000;DHT22;3540;53.242;10.408;2022-10-22T02:44:10;13.00;99.90
7000;DHT22;3540;53.242;10.408;2022-10-22T02:46:44;13.00;99.90
7000;DHT22;3540;53.242;10.408;2022-10-22T02:49:13;12.90;99.90
7000;DHT22;3540;53.242;10.408;2022-10-22T02:51:39;12.90;99.90
7000;DHT22;3540;53.242;10.408;2022-10-22T02:54:05;12.90;99.90
7000;DHT22;3540;53.242;10.408;2022-10-22T02:56:31;12.90;99.90
7000;DHT22;3540;53.242;10.408;2022-10-22T02:59:00;12.80;99.90
7000;DHT22;3540;53.242;10.408;2022-10-22T03:01:25;12.80;99.90
7000;DHT22;3540;53.242;10.408;2022-10-22T03:03:51;12.80;99.90
7000;DHT22;3540;53.242;10.408;2022-10-22T03:06:17;12.70;99.90
7000;DHT22;3540;53.242;10.408;2022-10-22T03:08:43;12.60;99.90
7000;DHT22;3540;53.242;10.408;2022-10-22T03:11:08;12.60;99.90
7000;DHT22;3540;53.242;10.408;2022-10-22T03:13:34;12.60;99.90
7000;DHT22;3540;53.242;10.408;2022-10-22T03:16:00;12.60;99.90
7000;DHT22;3540;53.242;10.408;2022-10-22T03:18:26;12.60;99.90
7000;DHT22;3540;53.242;10.408;2022-10-22T03:21:03;12.60;99.90
7000;DHT22;3540;53.242;10.408;2022-10-22T03:23:31;12.60;99.90
7000;DHT22;3540;53.242;10.408;2022-10-22T03:25:58;12.50;99.90
7000;DHT22;3540;53.242;10.408;2022-10-22T03:28:24;12.50;99.90
7000;DHT22;3540;53.242;10.408;2022-10-22T03:30:51;12.50;99.90
7000;DHT22;3540;53.242;10.408;2022-10-22T03:33:17;12.50;99.90
7000;DHT22;3540;53.242;10.408;2022-10-22T03:35:45;12.40;99.90
7000;DHT22;3540;53.242;10.408;2022-10-22T03:38:12;12.30;99.90
7000;DHT22;3540;53.242;10.408;2022-10-22T03:40:39;12.30;99.90
7000;DHT22;3540;53.242;10.408;2022-10-22T03:43:05;12.20;99.90
7000;DHT22;3540;53.242;10.408;2022-10-22T03:45:31;12.20;99.90
7000;DHT22;3540;53.242;10.408;2022-10-22T03:47:57;12.20;99.90
7000;DHT22;3540;53.242;10.408;2022-10-22T03:50:23;12.10;99.90
7000;DHT22;3540;53.242;10.408;2022-10-22T03:52:48;12.10;99.90
7000;DHT22;3540;53.242;10.408;2022-10-22T03:55:14;12.00;99.90
7000;DHT22;3540;53.242;10.408;2022-10-22T03:57:40;12.00;99.90
7000;DHT22;3540;53.242;10.408;2022-10-22T04:00:06;12.00;99.90
7000;DHT22;3540;53.242;10.408;2022-10-22T04:02:32;12.00;99.90
7000;DHT22;3540;53.242;10.408;2022-10-22T04:04:58;12.10;99.90
7000;DHT22;3540;53.242;10.408;2022-10-22T04:07:24;12.20;99.90
7000;DHT22;3540;53.242;10.408;2022-10-22T04:09:50;12.30;99.90
7000;DHT22;3540;53.242;10.408;2022-10-22T04:12:16;12.30;99.90
7000;DHT22;3540;53.242;10.408;2022-10-22T04:14:42;12.20;99.90
7000;DHT22;3540;53.242;10.408;2022-10-22T04:17:07;12.20;99.90
7000;DHT22;3540;53.242;10.408;2022-10-22T04:19:33;12.20;99.90
7000;DHT22;3540;53.242;10.408;2022-10-22T04:22:00;12.10;99.90
7000;DHT22;3540;53.242;10.408;2022-10-22T04:24:26;12.10;99.90
7000;DHT22;3540;53.242;10.408;2022-10-22T04:26:55;12.00;99.90
7000;DHT22;3540;53.242;10.408;2022-10-22T04:29:21;11.90;99.90
7000;DHT22;3540;53.242;10.408;2022-10-22T04:31:51;11.90;99.90
7000;DHT22;3540;53.242;10.408;2022-10-22T04:34:28;11.80;99.90
7000;DHT22;3540;53.242;10.408;2022-10-22T04:37:00;11.80;99.90
7000;DHT22;3540;53.242;10.408;2022-10-22T04:39:29;11.80;99.90
7000;DHT22;3540;53.242;10.408;2022-10-22T04:41:58;11.80;99.90
7000;DHT22;3540;53.242;10.408;2022-10-22T04:44:30;11.80;99.90
7000;DHT22;3540;53.242;10.408;2022-10-22T04:46:55;11.80;99.90
7000;DHT22;3540;53.242;10.408;2022-10-22T04:49:24;11.80;99.90
7000;DHT22;3540;53.242;10.408;2022-10-22T04:51:50;11.80;99.90
7000;DHT22;3540;53.242;10.408;2022-10-22T04:54:16;11.80;99.90
7000;DHT22;3540;53.242;10.408;2022-10-22T04:56:47;11.80;99.90
7000;DHT22;3540;53.242;10.408;2022-10-22T04:59:13;11.80;99.90
7000;DHT22;3540;53.242;10.408;2022-10-22T05:01:44;11.70;99.90
7000;DHT22;3540;53.242;10.408;2022-10-22T05:04:28;11.70;99.90
7000;DHT22;3540;53.242;10.408;2022-10-22T05:07:28;11.70;99.90
7000;DHT22;3540;53.242;10.408;2022-10-22T05:10:14;11.70;99.90
7000;DHT22;3540;53.242;10.408;2022-10-22T05:12:43;11.60;99.90
7000;DHT22;3540;53.242;10.408;2022-10-22T05:15:12;11.60;99.90
7000;DHT22;3540;53.242;10.408;2022-10-22T05:17:44;11.60;99.90
7000;DHT22;3540;53.242;10.408;2022-10-22T05:20:20;11.60;99.90
7000;DHT22;3540;53.242;10.408;2022-10-22T05:22:54;11.60;99.90
7000;DHT22;3540;53.242;10.408;2022-10-22T05:25:39;11.60;99.90
7000;DHT22;3540;53.242;10.408;2022-10-22T05:28:05;11.60;99.90
7000;DHT22;3540;53.242;10.408;2022-10-22T05:30:31;11.60;99.90
7000;DHT22;3540;53.242;10.408;2022-10-22T05:32:57;11.60;99.90
7000;DHT22;3540;53.242;10.408;2022-10-22T05:35:23;11.60;99.90
7000;DHT22;3540;53.242;10.408;2022-10-22T05:37:51;11.60;99.90
7000;DHT22;3540;53.242;10.408;2022-10-22T05:40:20;11.60;99.90
7000;DHT22;3540;53.242;10.408;2022-10-22T05:42:49;11.50;99.90
7000;DHT22;3540;53.242;10.408;2022-10-22T05:45:17;11.50;99.90
7000;DHT22;3540;53.242;10.408;2022-10-22T05:47:51;11.40;99.90
7000;DHT22;3540;53.242;10.408;2022-10-22T05:50:17;11.40;99.90
7000;DHT22;3540;53.242;10.408;2022-10-22T05:52:42;11.30;99.90
7000;DHT22;3540;53.242;10.408;2022-10-22T05:55:08;11.30;99.90
7000;DHT22;3540;53.242;10.408;2022-10-22T05:57:34;11.30;99.90
7000;DHT22;3540;53.242;10.408;2022-10-22T05:59:59;11.30;99.90
7000;DHT22;3540;53.242;10.408;2022-10-22T06:02:25;11.30;99.90
7000;DHT22;3540;53.242;10.408;2022-10-22T06:04:50;11.20;99.90
7000;DHT22;3540;53.242;10.408;2022-10-22T06:07:16;11.20;99.90
7000;DHT22;3540;53.242;10.408;2022-10-22T06:09:41;11.20;99.90
7000;DHT22;3540;53.242;10.408;2022-10-22T06:12:07;11.20;99.90
7000;DHT22;3540;53.242;10.408;2022-10-22T06:14:35;11.20;99.90
7000;DHT22;3540;53.242;10.408;2022-10-22T06:17:01;11.20;99.90
7000;DHT22;3540;53.242;10.408;2022-10-22T06:19:26;11.30;99.90
7000;DHT22;3540;53.242;10.408;2022-10-22T06:21:52;11.30;99.90
7000;DHT22;3540;53.242;10.408;2022-10-22T06:24:18;11.30;99.90
7000;DHT22;3540;53.242;10.408;2022-10-22T06:26:43;11.20;99.90
7000;DHT22;3540;53.242;10.408;2022-10-22T06:29:09;11.20;99.90
7000;DHT22;3540;53.242;10.408;2022-10-22T06:31:36;11.30;99.90
7000;DHT22;3540;53.242;10.408;2022-10-22T06:34:06;11.30;99.90
7000;DHT22;3540;53.242;10.408;2022-10-22T06:36:33;11.30;99.90
7000;DHT22;3540;53.242;10.408;2022-10-22T06:38:59;11.30;99.90
7000;DHT22;3540;53.242;10.408;2022-10-22T06:41:25;11.40;99.90
7000;DHT22;3540;53.242;10.408;2022-10-22T06:43:52;11.40;99.90
7000;DHT22;3540;53.242;10.408;2022-10-22T06:46:19;11.50;99.90
7000;DHT22;3540;53.242;10.408;2022-10-22T06:48:50;11.50;99.90
7000;DHT22;3540;53.242;10.408;2022-10-22T06:51:17;11.50;99.90
7000;DHT22;3540;53.242;10.408;2022-10-22T06:53:42;11.50;99.90
7000;DHT22;3540;53.242;10.408;2022-10-22T06:56:10;11.50;99.90
7000;DHT22;3540;53.242;10.408;2022-10-22T06:58:36;11.50;99.90
7000;DHT22;3540;53.242;10.408;2022-10-22T07:01:06;11.50;99.90
7000;DHT22;3540;53.242;10.408;2022-10-22T07:03:32;11.50;99.90
7000;DHT22;3540;53.242;10.408;2022-10-22T07:06:02;11.50;99.90
7000;DHT22;3540;53.242;10.408;2022-10-22T07:08:29;11.50;99.90
7000;DHT22;3540;53.242;10.408;2022-10-22T07:10:55;11.50;99.90
7000;DHT22;3540;53.242;10.408;2022-10-22T07:13:21;11.50;99.90
7000;DHT22;3540;53.242;10.408;2022-10-22T07:15:53;11.50;99.90
7000;DHT22;3540;53.242;10.408;2022-10-22T07:18:20;11.60;99.90
7000;DHT22;3540;53.242;10.408;2022-10-22T07:20:47;11.60;99.90
7000;DHT22;3540;53.242;10.408;2022-10-22T07:23:12;11.60;99.90
7000;DHT22;3540;53.242;10.408;2022-10-22T07:25:38;11.60;99.90
7000;DHT22;3540;53.242;10.408;2022-10-22T07:28:04;11.60;99.90
7000;DHT22;3540;53.242;10.408;2022-10-22T07:30:29;11.60;99.90
7000;DHT22;3540;53.242;10.408;2022-10-22T07:32:55;11.60;99.90
7000;DHT22;3540;53.242;10.408;2022-10-22T07:35:20;11.60;99.90
7000;DHT22;3540;53.242;10.408;2022-10-22T07:37:46;11.60;99.90
7000;DHT22;3540;53.242;10.408;2022-10-22T07:40:11;11.70;99.90
7000;DHT22;3540;53.242;10.408;2022-10-22T07:42:37;11.70;99.90
7000;DHT22;3540;53.242;10.408;2022-10-22T07:45:03;11.80;99.90
7000;DHT22;3540;53.242;10.408;2022-10-22T07:47:28;11.90;99.90
7000;DHT22;3540;53.242;10.408;2022-10-22T07:49:54;11.90;99.90
7000;DHT22;3540;53.242;10.408;2022-10-22T07:52:20;12.10;99.90
7000;DHT22;3540;53.242;10.408;2022-10-22T07:54:45;12.20;99.90
7000;DHT22;3540;53.242;10.408;2022-10-22T07:57:11;12.30;99.90
7000;DHT22;3540;53.242;10.408;2022-10-22T07:59:36;12.50;99.90
7000;DHT22;3540;53.242;10.408;2022-10-22T08:02:02;12.60;99.90
7000;DHT22;3540;53.242;10.408;2022-10-22T08:04:28;12.80;99.90
7000;DHT22;3540;53.242;10.408;2022-10-22T08:06:53;12.90;99.90
7000;DHT22;3540;53.242;10.408;2022-10-22T08:09:19;13.10;99.90
7000;DHT22;3540;53.242;10.408;2022-10-22T08:11:44;13.20;99.90
7000;DHT22;3540;53.242;10.408;2022-10-22T08:14:11;13.30;99.90
7000;DHT22;3540;53.242;10.408;2022-10-22T08:16:36;13.50;99.90
7000;DHT22;3540;53.242;10.408;2022-10-22T08:19:02;13.60;99.90
7000;DHT22;3540;53.242;10.408;2022-10-22T08:21:28;13.80;99.90
7000;DHT22;3540;53.242;10.408;2022-10-22T08:23:53;13.90;99.90
7000;DHT22;3540;53.242;10.408;2022-10-22T08:26:19;14.00;99.90
7000;DHT22;3540;53.242;10.408;2022-10-22T08:28:44;14.00;99.90
7000;DHT22;3540;53.242;10.408;2022-10-22T08:31:10;14.20;99.90
7000;DHT22;3540;53.242;10.408;2022-10-22T08:33:36;14.20;99.90
7000;DHT22;3540;53.242;10.408;2022-10-22T08:36:03;14.30;99.90
7000;DHT22;3540;53.242;10.408;2022-10-22T08:38:29;14.30;99.90
7000;DHT22;3540;53.242;10.408;2022-10-22T08:43:49;14.60;99.90
7000;DHT22;3540;53.242;10.408;2022-10-22T08:48:55;14.90;99.90
7000;DHT22;3540;53.242;10.408;2022-10-22T08:51:33;14.90;99.90
7000;DHT22;3540;53.242;10.408;2022-10-22T08:54:12;14.90;99.90
7000;DHT22;3540;53.242;10.408;2022-10-22T08:56:44;14.90;99.90
7000;DHT22;3540;53.242;10.408;2022-10-22T08:59:26;15.00;99.90
7000;DHT22;3540;53.242;10.408;2022-10-22T09:01:53;15.10;99.90
7000;DHT22;3540;53.242;10.408;2022-10-22T09:04:50;15.10;99.90
7000;DHT22;3540;53.242;10.408;2022-10-22T09:07:21;15.10;99.90
7000;DHT22;3540;53.242;10.408;2022-10-22T09:09:49;15.30;99.90
7000;DHT22;3540;53.242;10.408;2022-10-22T09:12:16;15.40;99.90
7000;DHT22;3540;53.242;10.408;2022-10-22T09:14:42;15.60;99.90
7000;DHT22;3540;53.242;10.408;2022-10-22T09:17:32;15.70;99.90
7000;DHT22;3540;53.242;10.408;2022-10-22T09:25:44;16.20;99.90
7000;DHT22;3540;53.242;10.408;2022-10-22T09:28:11;16.20;99.90
7000;DHT22;3540;53.242;10.408;2022-10-22T09:30:38;16.30;99.90
7000;DHT22;3540;53.242;10.408;2022-10-22T09:33:16;16.30;99.90
7000;DHT22;3540;53.242;10.408;2022-10-22T09:35:58;16.50;99.90
7000;DHT22;3540;53.242;10.408;2022-10-22T09:38:30;16.50;99.90
7000;DHT22;3540;53.242;10.408;2022-10-22T09:40:58;16.60;99.90
7000;DHT22;3540;53.242;10.408;2022-10-22T09:43:24;16.70;99.90
7000;DHT22;3540;53.242;10.408;2022-10-22T09:46:01;16.70;99.90
7000;DHT22;3540;53.242;10.408;2022-10-22T09:48:40;16.70;99.90
7000;DHT22;3540;53.242;10.408;2022-10-22T09:53:57;16.80;99.90
7000;DHT22;3540;53.242;10.408;2022-10-22T09:56:39;16.90;99.90
7000;DHT22;3540;53.242;10.408;2022-10-22T09:59:13;17.00;99.90
7000;DHT22;3540;53.242;10.408;2022-10-22T10:01:40;16.90;99.90
7000;DHT22;3540;53.242;10.408;2022-10-22T10:04:12;16.90;99.90
7000;DHT22;3540;53.242;10.408;2022-10-22T10:06:41;16.90;99.90
7000;DHT22;3540;53.242;10.408;2022-10-22T10:09:19;17.10;99.90
7000;DHT22;3540;53.242;10.408;2022-10-22T10:19:38;17.40;99.90
7000;DHT22;3540;53.242;10.408;2022-10-22T10:27:39;17.60;99.90
7000;DHT22;3540;53.242;10.408;2022-10-22T10:30:14;17.70;99.90
7000;DHT22;3540;53.242;10.408;2022-10-22T10:40:27;18.00;99.90
7000;DHT22;3540;53.242;10.408;2022-10-22T10:48:42;18.20;99.90
7000;DHT22;3540;53.242;10.408;2022-10-22T10:56:53;18.50;99.90
7000;DHT22;3540;53.242;10.408;2022-10-22T11:07:54;18.50;99.90
7000;DHT22;3540;53.242;10.408;2022-10-22T11:10:33;18.60;99.90
7000;DHT22;3540;53.242;10.408;2022-10-22T11:13:08;18.70;99.90
7000;DHT22;3540;53.242;10.408;2022-10-22T11:15:37;18.80;99.90
7000;DHT22;3540;53.242;10.408;2022-10-22T11:20:56;18.70;99.90
7000;DHT22;3540;53.242;10.408;2022-10-22T11:23:31;18.60;99.90
7000;DHT22;3540;53.242;10.408;2022-10-22T11:26:01;18.70;99.90
7000;DHT22;3540;53.242;10.408;2022-10-22T11:28:35;18.70;99.90
7000;DHT22;3540;53.242;10.408;2022-10-22T11:31:23;18.70;99.90
7000;DHT22;3540;53.242;10.408;2022-10-22T11:34:09;18.90;99.90
7000;DHT22;3540;53.242;10.408;2022-10-22T11:36:38;19.20;99.90
7000;DHT22;3540;53.242;10.408;2022-10-22T11:39:04;19.20;99.90
7000;DHT22;3540;53.242;10.408;2022-10-22T11:41:32;19.40;99.90
7000;DHT22;3540;53.242;10.408;2022-10-22T11:44:21;19.50;99.90
7000;DHT22;3540;53.242;10.408;2022-10-22T11:46:57;19.60;99.90
7000;DHT22;3540;53.242;10.408;2022-10-22T11:49:40;19.70;99.90
7000;DHT22;3540;53.242;10.408;2022-10-22T11:54:47;19.80;99.90
7000;DHT22;3540;53.242;10.408;2022-10-22T11:59:51;20.00;99.90
7000;DHT22;3540;53.242;10.408;2022-10-22T12:02:40;20.00;99.90
7000;DHT22;3540;53.242;10.408;2022-10-22T12:05:32;20.00;99.90
7000;DHT22;3540;53.242;10.408;2022-10-22T12:08:22;19.80;99.90
7000;DHT22;3540;53.242;10.408;2022-10-22T12:11:02;19.70;99.90
7000;DHT22;3540;53.242;10.408;2022-10-22T12:14:13;19.70;99.90
7000;DHT22;3540;53.242;10.408;2022-10-22T12:16:23;19.40;99.90
7000;DHT22;3540;53.242;10.408;2022-10-22T12:18:56;19.30;99.90
7000;DHT22;3540;53.242;10.408;2022-10-22T12:21:23;19.20;99.90
7000;DHT22;3540;53.242;10.408;2022-10-22T12:23:50;19.40;99.90
7000;DHT22;3540;53.242;10.408;2022-10-22T12:26:34;19.50;99.90
7000;DHT22;3540;53.242;10.408;2022-10-22T12:29:01;19.60;99.90
7000;DHT22;3540;53.242;10.408;2022-10-22T12:31:35;19.60;99.90
7000;DHT22;3540;53.242;10.408;2022-10-22T12:34:00;19.70;99.90
7000;DHT22;3540;53.242;10.408;2022-10-22T12:36:27;19.70;99.90
7000;DHT22;3540;53.242;10.408;2022-10-22T12:38:53;19.90;99.90
7000;DHT22;3540;53.242;10.408;2022-10-22T12:41:20;19.70;99.90
7000;DHT22;3540;53.242;10.408;2022-10-22T12:43:46;19.50;99.90
7000;DHT22;3540;53.242;10.408;2022-10-22T12:46:13;19.40;99.90
7000;DHT22;3540;53.242;10.408;2022-10-22T12:48:43;19.30;99.90
7000;DHT22;3540;53.242;10.408;2022-10-22T12:51:18;19.20;99.90
7000;DHT22;3540;53.242;10.408;2022-10-22T12:53:47;19.10;99.90
7000;DHT22;3540;53.242;10.408;2022-10-22T12:56:17;19.20;99.90
7000;DHT22;3540;53.242;10.408;2022-10-22T12:58:51;19.20;99.90
7000;DHT22;3540;53.242;10.408;2022-10-22T13:01:17;19.20;99.90
7000;DHT22;3540;53.242;10.408;2022-10-22T13:03:48;19.30;99.90
7000;DHT22;3540;53.242;10.408;2022-10-22T13:11:36;19.10;99.90
7000;DHT22;3540;53.242;10.408;2022-10-22T13:14:04;19.20;99.90
7000;DHT22;3540;53.242;10.408;2022-10-22T13:16:30;19.20;99.90
7000;DHT22;3540;53.242;10.408;2022-10-22T13:18:57;19.20;99.90
7000;DHT22;3540;53.242;10.408;2022-10-22T13:21:34;19.30;99.90
7000;DHT22;3540;53.242;10.408;2022-10-22T13:24:18;19.50;99.90
7000;DHT22;3540;53.242;10.408;2022-10-22T13:26:48;19.60;99.90
7000;DHT22;3540;53.242;10.408;2022-10-22T13:29:16;19.60;99.90
7000;DHT22;3540;53.242;10.408;2022-10-22T13:31:45;19.70;99.90
7000;DHT22;3540;53.242;10.408;2022-10-22T13:34:16;19.80;99.90
7000;DHT22;3540;53.242;10.408;2022-10-22T13:36:42;19.90;99.90
7000;DHT22;3540;53.242;10.408;2022-10-22T13:39:14;19.80;99.90
7000;DHT22;3540;53.242;10.408;2022-10-22T13:41:41;19.70;99.90
7000;DHT22;3540;53.242;10.408;2022-10-22T13:44:07;19.70;99.90
7000;DHT22;3540;53.242;10.408;2022-10-22T13:46:32;19.50;99.90
7000;DHT22;3540;53.242;10.408;2022-10-22T13:49:04;19.30;99.90
7000;DHT22;3540;53.242;10.408;2022-10-22T13:51:34;19.40;99.90
7000;DHT22;3540;53.242;10.408;2022-10-22T13:54:00;19.50;99.90
7000;DHT22;3540;53.242;10.408;2022-10-22T13:56:26;19.40;99.90
7000;DHT22;3540;53.242;10.408;2022-10-22T13:58:51;19.30;99.90
7000;DHT22;3540;53.242;10.408;2022-10-22T14:01:24;19.20;99.90
7000;DHT22;3540;53.242;10.408;2022-10-22T14:03:53;19.00;99.90
7000;DHT22;3540;53.242;10.408;2022-10-22T14:06:20;18.90;99.90
7000;DHT22;3540;53.242;10.408;2022-10-22T14:08:54;19.00;99.90
7000;DHT22;3540;53.242;10.408;2022-10-22T14:11:21;19.00;99.90
7000;DHT22;3540;53.242;10.408;2022-10-22T14:13:46;19.00;99.90
7000;DHT22;3540;53.242;10.408;2022-10-22T14:16:18;18.90;99.90
7000;DHT22;3540;53.242;10.408;2022-10-22T14:18:44;18.80;99.90
7000;DHT22;3540;53.242;10.408;2022-10-22T14:21:12;18.70;99.90
7000;DHT22;3540;53.242;10.408;2022-10-22T14:23:39;18.70;99.90
7000;DHT22;3540;53.242;10.408;2022-10-22T14:26:05;18.90;99.90
7000;DHT22;3540;53.242;10.408;2022-10-22T14:28:32;19.10;99.90
7000;DHT22;3540;53.242;10.408;2022-10-22T14:30:58;19.40;99.90
7000;DHT22;3540;53.242;10.408;2022-10-22T14:33:27;19.50;99.90
7000;DHT22;3540;53.242;10.408;2022-10-22T14:35:53;19.70;99.90
7000;DHT22;3540;53.242;10.408;2022-10-22T14:38:22;19.60;99.90
7000;DHT22;3540;53.242;10.408;2022-10-22T14:40:48;19.40;99.90
7000;DHT22;3540;53.242;10.408;2022-10-22T14:43:26;19.10;99.90
7000;DHT22;3540;53.242;10.408;2022-10-22T14:45:52;19.00;99.90
7000;DHT22;3540;53.242;10.408;2022-10-22T14:48:17;18.90;99.90
7000;DHT22;3540;53.242;10.408;2022-10-22T14:50:44;18.80;99.90
7000;DHT22;3540;53.242;10.408;2022-10-22T14:53:10;18.70;99.90
7000;DHT22;3540;53.242;10.408;2022-10-22T14:55:38;18.70;99.90
7000;DHT22;3540;53.242;10.408;2022-10-22T14:58:04;18.60;99.90
7000;DHT22;3540;53.242;10.408;2022-10-22T15:00:29;18.70;99.90
7000;DHT22;3540;53.242;10.408;2022-10-22T15:02:55;18.70;99.90
7000;DHT22;3540;53.242;10.408;2022-10-22T15:05:21;18.60;99.90
7000;DHT22;3540;53.242;10.408;2022-10-22T15:07:46;18.50;99.90
7000;DHT22;3540;53.242;10.408;2022-10-22T15:10:12;18.50;99.90
7000;DHT22;3540;53.242;10.408;2022-10-22T15:12:38;18.60;99.90
7000;DHT22;3540;53.242;10.408;2022-10-22T15:15:04;18.60;99.90
7000;DHT22;3540;53.242;10.408;2022-10-22T15:17:30;18.60;99.90
7000;DHT22;3540;53.242;10.408;2022-10-22T15:19:56;18.50;99.90
7000;DHT22;3540;53.242;10.408;2022-10-22T15:22:24;18.40;99.90
7000;DHT22;3540;53.242;10.408;2022-10-22T15:24:50;18.20;99.90
7000;DHT22;3540;53.242;10.408;2022-10-22T15:27:17;18.00;99.90
7000;DHT22;3540;53.242;10.408;2022-10-22T15:29:43;17.90;99.90
7000;DHT22;3540;53.242;10.408;2022-10-22T15:32:09;17.80;99.90
7000;DHT22;3540;53.242;10.408;2022-10-22T15:34:36;17.70;99.90
7000;DHT22;3540;53.242;10.408;2022-10-22T15:37:05;17.60;99.90
7000;DHT22;3540;53.242;10.408;2022-10-22T15:39:31;17.50;99.90
7000;DHT22;3540;53.242;10.408;2022-10-22T15:41:57;17.40;99.90
7000;DHT22;3540;53.242;10.408;2022-10-22T15:44:26;17.30;99.90
7000;DHT22;3540;53.242;10.408;2022-10-22T15:46:52;17.20;99.90
7000;DHT22;3540;53.242;10.408;2022-10-22T15:49:20;17.20;99.90
7000;DHT22;3540;53.242;10.408;2022-10-22T15:51:46;17.20;99.90
7000;DHT22;3540;53.242;10.408;2022-10-22T15:54:18;17.10;99.90
7000;DHT22;3540;53.242;10.408;2022-10-22T15:56:45;17.10;99.90
7000;DHT22;3540;53.242;10.408;2022-10-22T15:59:12;17.10;99.90
7000;DHT22;3540;53.242;10.408;2022-10-22T16:01:38;17.00;99.90
7000;DHT22;3540;53.242;10.408;2022-10-22T16:04:04;17.10;99.90
7000;DHT22;3540;53.242;10.408;2022-10-22T16:08:57;17.00;99.90
7000;DHT22;3540;53.242;10.408;2022-10-22T16:11:24;16.90;99.90
7000;DHT22;3540;53.242;10.408;2022-10-22T16:13:54;16.80;99.90
7000;DHT22;3540;53.242;10.408;2022-10-22T16:16:21;16.70;99.90
7000;DHT22;3540;53.242;10.408;2022-10-22T16:18:48;16.70;99.90
7000;DHT22;3540;53.242;10.408;2022-10-22T16:21:14;16.70;99.90
7000;DHT22;3540;53.242;10.408;2022-10-22T16:23:40;16.60;99.90
7000;DHT22;3540;53.242;10.408;2022-10-22T16:26:06;16.60;99.90
7000;DHT22;3540;53.242;10.408;2022-10-22T16:28:32;16.60;99.90
7000;DHT22;3540;53.242;10.408;2022-10-22T16:31:02;16.50;99.90
7000;DHT22;3540;53.242;10.408;2022-10-22T16:33:28;16.50;99.90
7000;DHT22;3540;53.242;10.408;2022-10-22T16:35:53;16.60;99.90
7000;DHT22;3540;53.242;10.408;2022-10-22T16:38:19;16.50;99.90
7000;DHT22;3540;53.242;10.408;2022-10-22T16:40:45;16.50;99.90
7000;DHT22;3540;53.242;10.408;2022-10-22T16:43:10;16.50;99.90
7000;DHT22;3540;53.242;10.408;2022-10-22T16:45:36;16.50;99.90
7000;DHT22;3540;53.242;10.408;2022-10-22T16:48:01;16.50;99.90
7000;DHT22;3540;53.242;10.408;2022-10-22T16:50:27;16.40;99.90
7000;DHT22;3540;53.242;10.408;2022-10-22T16:52:53;16.40;99.90
7000;DHT22;3540;53.242;10.408;2022-10-22T16:55:18;16.40;99.90
7000;DHT22;3540;53.242;10.408;2022-10-22T16:57:49;16.40;99.90
7000;DHT22;3540;53.242;10.408;2022-10-22T17:00:15;16.40;99.90
7000;DHT22;3540;53.242;10.408;2022-10-22T17:02:41;16.40;99.90
7000;DHT22;3540;53.242;10.408;2022-10-22T17:05:07;16.30;99.90
7000;DHT22;3540;53.242;10.408;2022-10-22T17:07:32;16.10;99.90
7000;DHT22;3540;53.242;10.408;2022-10-22T17:09:58;15.90;99.90
7000;DHT22;3540;53.242;10.408;2022-10-22T17:12:25;15.80;99.90
7000;DHT22;3540;53.242;10.408;2022-10-22T17:14:51;15.70;99.90
7000;DHT22;3540;53.242;10.408;2022-10-22T17:17:17;15.50;99.90
7000;DHT22;3540;53.242;10.408;2022-10-22T17:19:42;15.40;99.90
7000;DHT22;3540;53.242;10.408;2022-10-22T17:22:08;15.30;99.90
7000;DHT22;3540;53.242;10.408;2022-10-22T17:24:33;15.20;99.90
7000;DHT22;3540;53.242;10.408;2022-10-22T17:27:00;15.20;99.90
7000;DHT22;3540;53.242;10.408;2022-10-22T17:29:25;15.00;99.90
7000;DHT22;3540;53.242;10.408;2022-10-22T17:31:51;14.90;99.90
7000;DHT22;3540;53.242;10.408;2022-10-22T17:34:17;14.90;99.90
7000;DHT22;3540;53.242;10.408;2022-10-22T17:36:43;14.80;99.90
7000;DHT22;3540;53.242;10.408;2022-10-22T17:39:14;14.80;99.90
7000;DHT22;3540;53.242;10.408;2022-10-22T17:41:40;14.80;99.90
7000;DHT22;3540;53.242;10.408;2022-10-22T17:44:07;14.70;99.90